Time;durP1;ratioP1;P1;durP2;ratioP2;P2;SDS_P1;SDS_P2;PMS_P1;PMS_P2;Temp;Humidity;BMP_temperature;BMP_pressure;BME280_temperature;BME280_humidity;BME280_pressure;Samples;Min_cycle;Max_cycle;Signal;HPM_P1;HPM_P2
2021/10/09 00:00:02;;;;;;;2.50;1.80;;;4.90;1.40;;;6.20;100.00;96201.39;645381;216;31564;-73
2021/10/09 00:02:43;;;;;;;3.50;1.50;;;4.90;1.40;;;6.12;100.00;96208.56;648411;212;42193;-73
2021/10/09 00:05:25;;;;;;;2.30;1.60;;;4.80;1.40;;;6.17;100.00;96204.11;619548;222;31907;-73
2021/10/09 00:08:14;;;;;;;2.40;2.20;;;4.90;1.40;;;6.34;100.00;96199.47;647418;212;31573;-71
2021/10/09 00:10:50;;;;;;;2.00;1.90;;;5.00;1.40;;;6.36;100.00;96201.20;646263;213;31595;-71
2021/10/09 00:13:32;;;;;;;2.55;2.35;;;5.10;1.40;;;6.20;100.00;96200.69;615703;227;31883;-74
2021/10/09 00:16:14;;;;;;;2.00;1.52;;;5.00;1.40;;;6.30;100.00;96197.91;646098;212;31626;-71
2021/10/09 00:18:55;;;;;;;2.70;2.50;;;5.00;1.40;;;6.20;100.00;96197.95;648155;216;31587;-70
2021/10/09 00:21:43;;;;;;;3.25;1.90;;;4.90;1.40;;;6.21;100.00;96197.41;645904;212;31577;-73
2021/10/09 00:24:22;;;;;;;2.67;2.20;;;4.90;1.40;;;6.11;100.00;96192.52;646271;216;31544;-71
2021/10/09 00:27:03;;;;;;;1.30;1.20;;;4.90;1.40;;;6.03;100.00;96200.42;641809;216;31564;-70
2021/10/09 00:29:45;;;;;;;3.10;1.97;;;4.80;1.40;;;6.10;100.00;96196.87;645311;212;31533;-70
2021/10/09 00:32:27;;;;;;;2.40;1.73;;;4.70;1.40;;;6.11;100.00;96193.54;646099;216;33648;-70
2021/10/09 00:35:51;;;;;;;1.60;1.50;;;4.70;1.40;;;6.10;100.00;96193.75;648334;216;31567;-73
2021/10/09 00:38:33;;;;;;;2.58;1.77;;;4.70;1.40;;;6.02;100.00;96195.68;648152;212;31552;-72
2021/10/09 00:41:15;;;;;;;2.03;1.93;;;4.60;1.40;;;5.95;100.00;96192.39;642229;212;31723;-71
2021/10/09 00:43:56;;;;;;;1.83;1.73;;;4.60;1.40;;;5.91;100.00;96195.08;645929;212;31676;-71
2021/10/09 00:46:39;;;;;;;3.42;3.12;;;4.70;1.40;;;5.99;100.00;96192.95;647639;212;42189;-73
2021/10/09 00:49:23;;;;;;;2.00;1.30;;;4.80;1.40;;;6.16;100.00;96189.25;647712;212;31590;-74
2021/10/09 00:52:05;;;;;;;2.20;2.10;;;4.80;1.40;;;6.09;100.00;96188.52;647297;212;31753;-73
2021/10/09 00:54:47;;;;;;;3.80;2.60;;;4.70;1.40;;;6.05;100.00;96184.13;647287;216;31583;-73
2021/10/09 01:00:03;;;;;;;4.97;1.65;;;4.70;1.40;;;5.98;100.00;96180.25;618241;225;43215;-72
2021/10/09 01:02:45;;;;;;;5.00;3.50;;;4.60;1.40;;;5.90;100.00;96186.78;619491;226;32168;-72
2021/10/09 01:05:26;;;;;;;1.55;1.45;;;4.50;1.40;;;5.74;100.00;96181.80;647393;216;31699;-74
2021/10/09 01:08:08;;;;;;;3.30;2.40;;;4.30;1.40;;;5.60;100.00;96180.59;646810;212;31548;-75
2021/10/09 01:10:50;;;;;;;2.08;1.95;;;4.30;1.40;;;5.61;100.00;96181.30;646378;214;42143;-72
2021/10/09 01:13:34;;;;;;;3.50;2.20;;;4.20;1.40;;;5.49;100.00;96182.23;648242;216;32150;-73
2021/10/09 01:16:23;;;;;;;2.62;2.30;;;4.20;1.40;;;5.41;100.00;96183.30;646034;212;31972;-72
2021/10/09 01:21:52;;;;;;;4.03;1.20;;;4.10;1.40;;;5.43;100.00;96189.60;646135;216;31529;-72
2021/10/09 01:24:34;;;;;;;2.20;2.10;;;4.10;1.40;;;5.42;100.00;96184.48;647259;216;42161;-74
2021/10/09 01:27:16;;;;;;;1.10;1.10;;;4.20;1.40;;;5.46;100.00;96182.48;646012;216;31850;-71
2021/10/09 01:29:57;;;;;;;1.73;1.45;;;4.20;1.40;;;5.55;100.00;96180.57;646175;216;31560;-71
2021/10/09 01:32:39;;;;;;;2.00;1.70;;;4.20;1.40;;;5.48;100.00;96182.50;645805;212;42151;-73
2021/10/09 01:35:53;;;;;;;2.42;1.62;;;4.20;1.40;;;5.38;100.00;96178.39;647275;212;31562;-71
2021/10/09 01:38:35;;;;;;;2.58;1.85;;;4.10;1.40;;;5.30;100.00;96175.41;646949;216;31571;-74
2021/10/09 01:41:17;;;;;;;3.30;1.75;;;4.10;1.40;;;5.40;100.00;96179.20;642321;216;42847;-71
2021/10/09 01:43:59;;;;;;;1.50;1.40;;;4.20;1.40;;;5.45;100.00;96177.09;646433;212;32171;-74
2021/10/09 01:46:40;;;;;;;1.20;1.02;;;4.30;1.40;;;5.44;100.00;96174.07;647668;212;42811;-71
2021/10/09 01:49:22;;;;;;;1.00;1.00;;;4.20;1.40;;;5.43;100.00;96171.10;646743;216;32108;-70
2021/10/09 01:52:04;;;;;;;2.53;2.33;;;4.30;1.40;;;5.48;100.00;96169.16;618521;226;32407;-73
2021/10/09 01:54:46;;;;;;;2.03;1.92;;;4.30;1.40;;;5.65;100.00;96171.50;646700;216;42171;-71
2021/10/09 02:00:03;;;;;;;1.20;0.90;;;4.90;1.40;;;5.98;100.00;96166.05;646410;215;42173;-72
2021/10/09 02:02:43;;;;;;;1.00;0.80;;;5.00;1.40;;;6.06;100.00;96159.64;645416;216;31579;-72
2021/10/09 02:05:25;;;;;;;1.62;1.50;;;5.00;1.40;;;6.02;100.00;96156.98;620601;226;31919;-72
2021/10/09 02:08:07;;;;;;;2.45;1.55;;;4.90;1.40;;;6.11;100.00;96153.86;646238;212;42186;-73
2021/10/09 02:11:10;;;;;;;1.00;0.90;;;5.00;1.40;;;6.25;100.00;96156.19;620293;222;31910;-70
2021/10/09 02:13:57;;;;;;;3.00;2.00;;;5.20;1.40;;;6.38;100.00;96151.34;645387;216;31567;-71
2021/10/09 02:27:56;;;;;;;3.27;3.07;;;5.50;1.40;;;6.62;100.00;96155.27;647481;216;31554;-73
2021/10/09 02:30:38;;;;;;;1.02;0.98;;;5.60;1.40;;;6.61;100.00;96151.55;618736;222;31943;-71
2021/10/09 02:35:51;;;;;;;1.37;1.20;;;5.60;1.40;;;6.75;100.00;96155.14;645812;216;31599;-70
2021/10/09 02:38:33;;;;;;;1.90;1.70;;;5.80;1.40;;;6.78;100.00;96155.05;647254;216;31579;-71
2021/10/09 02:41:15;;;;;;;2.20;2.10;;;5.70;1.40;;;6.86;100.00;96161.66;642645;212;32956;-70
2021/10/09 02:43:56;;;;;;;2.50;2.30;;;5.80;1.40;;;7.09;100.00;96166.38;647644;216;32153;-73
2021/10/09 02:46:41;;;;;;;0.80;0.60;;;6.00;1.40;;;7.32;100.00;96169.66;646570;212;31584;-73
2021/10/09 02:51:57;;;;;;;1.40;1.30;;;6.40;1.40;;;7.63;100.00;96169.77;618776;226;31897;-73
2021/10/09 02:54:39;;;;;;;1.00;0.90;;;6.40;1.40;;;7.74;100.00;96169.19;648172;216;31569;-72
2021/10/09 02:57:20;;;;;;;1.73;1.50;;;6.50;1.40;;;7.76;100.00;96166.22;647212;212;31675;-71
2021/10/09 03:00:03;;;;;;;3.00;2.80;;;6.60;1.40;;;7.77;100.00;96166.70;620881;222;31897;-72
2021/10/09 03:02:44;;;;;;;2.37;2.20;;;6.60;1.40;;;7.72;100.00;96168.70;646993;216;31549;-71
2021/10/09 03:08:00;;;;;;;1.80;1.40;;;6.70;1.40;;;7.92;100.00;96168.15;646459;216;31556;-70
2021/10/09 03:10:41;;;;;;;2.30;2.10;;;6.70;1.40;;;7.81;100.00;96165.80;647015;212;31599;-71
2021/10/09 03:13:26;;;;;;;3.00;2.80;;;6.60;1.40;;;7.83;100.00;96163.39;646729;212;31608;-71
2021/10/09 03:16:08;;;;;;;4.47;2.20;;;6.60;1.40;;;7.68;100.00;96163.73;647273;212;32503;-74
2021/10/09 03:18:49;;;;;;;2.90;2.70;;;6.60;1.40;;;7.73;100.00;96162.23;646603;216;32152;-71
2021/10/09 03:21:31;;;;;;;2.07;1.90;;;6.70;1.40;;;7.70;100.00;96163.95;645735;216;31980;-71
2021/10/09 03:26:47;;;;;;;2.90;2.60;;;6.70;1.40;;;7.98;100.00;96158.59;646566;215;31539;-72
2021/10/09 03:29:29;;;;;;;3.30;3.10;;;6.80;1.40;;;7.91;100.00;96166.37;647015;212;31569;-71
2021/10/09 03:32:13;;;;;;;1.90;1.70;;;6.80;1.40;;;7.94;100.00;96168.42;646196;212;32376;-71
2021/10/09 03:35:51;;;;;;;2.90;2.70;;;6.80;1.40;;;8.07;100.00;96170.39;647198;216;31568;-71
2021/10/09 03:38:35;;;;;;;1.30;1.20;;;6.80;1.40;;;8.04;100.00;96170.50;644606;215;31593;-71
2021/10/09 03:41:16;;;;;;;2.30;2.20;;;6.80;1.40;;;8.06;100.00;96175.03;642501;216;32303;-71
2021/10/09 03:43:56;;;;;;;1.90;1.80;;;6.80;1.40;;;8.11;100.00;96172.98;646689;212;31641;-71
2021/10/09 03:46:44;;;;;;;0.95;0.95;;;6.80;1.40;;;8.04;100.00;96173.03;618742;226;31984;-71
2021/10/09 03:49:37;;;;;;;3.47;2.60;;;6.80;1.40;;;7.95;100.00;96172.41;646139;212;31530;-71
2021/10/09 03:54:52;;;;;;;4.60;3.37;;;6.80;1.40;;;8.09;100.00;96177.95;645472;212;31568;-71
2021/10/09 03:57:34;;;;;;;1.87;1.77;;;6.70;1.40;;;7.86;100.00;96175.65;647299;212;31639;-71
2021/10/09 04:00:17;;;;;;;2.00;1.90;;;6.60;1.40;;;7.92;100.00;96180.41;646789;216;31560;-71
2021/10/09 04:02:57;;;;;;;2.13;2.03;;;6.70;1.40;;;7.97;100.00;96177.92;645759;216;31827;-72
2021/10/09 04:05:39;;;;;;;1.60;1.50;;;6.60;1.40;;;7.98;100.00;96173.17;647769;216;31807;-72
2021/10/09 04:08:21;;;;;;;3.35;3.10;;;6.60;1.40;;;8.03;100.00;96166.87;645717;212;32371;-73
2021/10/09 04:11:02;;;;;;;1.87;1.77;;;6.60;1.40;;;8.03;100.00;96168.06;646590;212;32130;-70
2021/10/09 04:13:44;;;;;;;1.37;1.27;;;6.50;1.40;;;8.04;100.00;96167.69;647057;216;32176;-71
2021/10/09 04:16:29;;;;;;;2.80;2.40;;;6.60;1.40;;;8.04;100.00;96168.06;647656;216;32541;-81
2021/10/09 04:19:17;;;;;;;2.15;2.03;;;6.50;1.40;;;8.12;100.00;96168.17;645977;216;31782;-71
2021/10/09 04:21:58;;;;;;;1.40;1.30;;;6.50;1.40;;;8.18;100.00;96171.78;645253;212;42914;-71
2021/10/09 04:24:43;;;;;;;2.70;2.55;;;6.50;1.40;;;8.09;100.00;96167.69;644724;216;31623;-71
2021/10/09 04:27:25;;;;;;;1.30;1.20;;;6.40;1.40;;;7.98;100.00;96169.60;647560;216;31567;-71
2021/10/09 04:30:07;;;;;;;2.50;2.30;;;6.30;1.40;;;7.92;100.00;96172.30;646800;212;31665;-71
2021/10/09 04:32:49;;;;;;;2.00;1.90;;;6.30;1.40;;;7.82;100.00;96169.77;646783;216;31881;-71
2021/10/09 04:35:50;;;;;;;2.12;1.92;;;6.30;1.40;;;7.68;100.00;96171.78;618078;222;32550;-71
2021/10/09 04:38:32;;;;;;;1.70;1.60;;;6.30;1.40;;;7.79;100.00;96166.33;646171;216;31544;-72
2021/10/09 04:41:17;;;;;;;2.78;2.58;;;6.40;1.40;;;7.99;100.00;96173.06;644500;212;31698;-70
2021/10/09 04:43:58;;;;;;;1.73;1.63;;;6.40;1.40;;;7.96;100.00;96170.63;645905;216;31567;-71
2021/10/09 04:46:40;;;;;;;3.43;2.53;;;6.40;1.40;;;7.98;100.00;96162.48;646949;212;31528;-71
2021/10/09 04:49:22;;;;;;;2.00;1.90;;;6.50;1.40;;;7.99;100.00;96164.37;633200;221;31725;-72
2021/10/09 04:52:04;;;;;;;2.17;1.87;;;6.50;1.40;;;8.14;100.00;96168.81;646608;216;32026;-72
2021/10/09 04:54:45;;;;;;;3.97;3.67;;;6.60;1.40;;;8.12;100.00;96167.41;645114;212;31561;-73
2021/10/09 04:57:27;;;;;;;2.23;2.00;;;6.60;1.40;;;8.07;100.00;96171.84;645771;212;31634;-72
2021/10/09 05:00:09;;;;;;;1.00;1.00;;;6.60;1.40;;;8.02;100.00;96166.87;618403;226;32228;-71
2021/10/09 05:02:51;;;;;;;2.40;1.50;;;6.60;1.40;;;7.97;100.00;96171.82;646074;216;42784;-72
2021/10/09 05:05:33;;;;;;;3.57;3.23;;;6.60;1.40;;;8.03;100.00;96173.47;646651;212;31741;-72
2021/10/09 05:08:17;;;;;;;4.55;4.25;;;6.60;1.40;;;8.25;100.00;96180.72;647037;212;31597;-72
2021/10/09 05:11:01;;;;;;;2.33;2.13;;;6.60;1.40;;;8.17;100.00;96183.88;644925;216;31660;-72
2021/10/09 05:13:41;;;;;;;2.97;2.77;;;6.40;1.40;;;8.16;100.00;96183.29;646169;216;31561;-73
2021/10/09 05:16:22;;;;;;;2.30;2.00;;;6.30;1.40;;;8.09;100.00;96186.53;646454;216;31568;-71
2021/10/09 05:19:04;;;;;;;3.20;2.90;;;6.40;1.40;;;8.14;100.00;96186.53;646441;216;31536;-72
2021/10/09 05:21:49;;;;;;;2.53;2.33;;;6.50;1.40;;;7.62;100.00;96188.41;645208;216;31826;-72
2021/10/09 05:24:31;;;;;;;4.10;3.70;;;6.40;1.40;;;7.19;100.00;96196.08;618640;226;32317;-71
2021/10/09 05:27:12;;;;;;;3.40;2.97;;;6.30;1.40;;;7.12;100.00;96192.70;645999;216;31622;-72
2021/10/09 05:29:54;;;;;;;2.87;2.67;;;6.40;1.40;;;7.08;100.00;96194.74;645786;216;31572;-71
2021/10/09 05:32:46;;;;;;;3.12;2.83;;;6.40;1.40;;;7.27;100.00;96199.80;619166;226;32151;-71
2021/10/09 05:35:51;;;;;;;4.80;3.00;;;6.50;1.40;;;7.57;100.00;96206.22;646672;216;32037;-70
2021/10/09 05:38:33;;;;;;;4.40;4.00;;;6.60;1.40;;;7.66;100.00;96206.20;646805;212;31647;-73
2021/10/09 05:41:15;;;;;;;2.62;2.42;;;6.60;1.40;;;7.60;100.00;96205.73;642596;212;32200;-72
2021/10/09 05:43:56;;;;;;;4.18;3.87;;;6.60;1.40;;;7.87;100.00;96209.50;619754;222;31919;-71
2021/10/09 05:46:39;;;;;;;1.87;1.77;;;6.70;1.40;;;8.08;100.00;96207.06;646994;216;31836;-72
2021/10/09 05:49:24;;;;;;;2.45;2.25;;;6.70;1.40;;;8.12;100.00;96209.59;646113;216;31597;-71
2021/10/09 05:55:11;;;;;;;2.45;2.33;;;6.60;1.40;;;7.99;100.00;96208.91;646997;216;31593;-71
2021/10/09 07:03:52;;;;;;;4.00;3.70;;;7.50;1.40;;;8.81;100.00;96240.85;646217;212;32232;-72
2021/10/09 07:06:41;;;;;;;9.88;5.32;;;7.50;1.40;;;8.32;100.00;96241.71;648150;216;31592;-72
2021/10/09 07:09:21;;;;;;;3.77;3.37;;;7.40;1.40;;;8.31;100.00;96244.84;646231;212;31633;-71
2021/10/09 07:12:03;;;;;;;6.53;5.90;;;7.30;1.40;;;8.45;100.00;96237.82;646860;212;34451;-72
2021/10/09 07:14:44;;;;;;;4.40;3.67;;;7.40;1.40;;;8.47;100.00;96244.30;645793;216;32089;-71
2021/10/09 07:17:26;;;;;;;6.90;5.87;;;7.60;1.40;;;8.62;100.00;96240.86;646027;212;32481;-71
2021/10/09 07:20:08;;;;;;;6.68;5.10;;;7.70;1.40;;;8.52;100.00;96244.41;647848;216;43213;-72
2021/10/09 07:22:50;;;;;;;5.13;4.60;;;7.60;1.40;;;8.42;100.00;96249.66;646537;216;31948;-70
2021/10/09 07:25:31;;;;;;;5.95;4.57;;;7.60;1.40;;;8.91;100.00;96250.08;646392;216;31572;-72
2021/10/09 07:28:13;;;;;;;4.30;2.90;;;7.80;1.40;;;8.58;100.00;96253.19;618528;224;31925;-73
2021/10/09 07:30:55;;;;;;;5.33;4.17;;;7.60;1.40;;;8.67;100.00;96259.02;646824;212;31559;-71
2021/10/09 07:35:51;;;;;;;7.07;4.50;;;7.70;1.40;;;8.60;100.00;96261.88;647227;216;31646;-71
2021/10/09 07:38:32;;;;;;;5.60;4.70;;;7.80;1.40;;;8.58;100.00;96261.13;646361;212;31916;-71
2021/10/09 07:41:14;;;;;;;7.07;5.10;;;7.80;1.40;;;8.79;100.00;96258.70;642508;212;31843;-71
2021/10/09 07:43:59;;;;;;;4.90;4.03;;;8.10;1.40;;;9.05;100.00;96258.23;645880;212;31933;-71
2021/10/09 07:46:41;;;;;;;5.87;4.80;;;8.10;1.40;;;8.96;100.00;96259.50;646479;216;31611;-71
2021/10/09 07:49:22;;;;;;;6.87;4.20;;;7.90;1.40;;;8.47;100.00;96260.35;619005;226;31914;-71
2021/10/09 07:52:04;;;;;;;6.17;4.90;;;7.80;1.40;;;8.64;100.00;96261.18;618123;226;32276;-71
2021/10/09 07:54:46;;;;;;;8.97;5.70;;;7.90;1.40;;;8.76;100.00;96268.33;646785;216;31666;-70
2021/10/09 07:57:28;;;;;;;6.10;5.60;;;8.00;1.40;;;9.28;100.00;96271.02;646442;216;31696;-71
2021/10/09 08:00:10;;;;;;;7.87;5.97;;;8.60;1.40;;;9.46;100.00;96272.33;645843;216;32905;-70
2021/10/09 08:02:52;;;;;;;8.03;4.93;;;8.80;1.40;;;9.92;100.00;96268.49;646178;216;31910;-71
2021/10/09 08:05:35;;;;;;;6.03;5.10;;;9.20;1.40;;;10.96;100.00;96271.73;646050;216;31598;-71
2021/10/09 08:08:16;;;;;;;6.20;5.07;;;9.70;1.40;;;11.43;100.00;96269.41;646900;216;31701;-72
2021/10/09 08:10:58;;;;;;;7.83;5.60;;;10.10;1.40;;;11.89;100.00;96267.66;618944;226;32046;-71
2021/10/09 08:13:39;;;;;;;6.80;5.10;;;10.30;1.40;;;11.16;100.00;96275.01;647134;213;31698;-71
2021/10/09 08:16:21;;;;;;;6.63;5.93;;;9.70;1.40;;;10.74;100.00;96277.12;645892;216;31988;-70
2021/10/09 08:19:03;;;;;;;7.57;5.30;;;9.40;1.40;;;11.06;100.00;96273.07;646701;212;31911;-70
2021/10/09 08:21:45;;;;;;;7.05;5.00;;;9.90;1.40;;;11.33;100.00;96275.09;619503;225;31970;-70
2021/10/09 08:24:36;;;;;;;5.40;4.90;;;10.10;1.40;;;11.47;100.00;96278.59;645231;212;33533;-71
2021/10/09 08:41:28;;;;;;;6.73;5.20;;;10.70;1.40;;;12.09;100.00;96275.70;647880;216;31552;-70
2021/10/09 08:44:08;;;;;;;6.80;5.30;;;11.30;1.40;;;11.95;100.00;96282.05;646622;216;32221;-71
2021/10/09 08:46:55;;;;;;;7.12;4.90;;;11.00;1.40;;;12.94;100.00;96287.23;647279;215;42889;-72
2021/10/09 08:49:37;;;;;;;9.02;6.12;;;11.40;1.40;;;12.64;100.00;96284.66;647434;216;42943;-71
2021/10/09 08:52:21;;;;;;;7.93;5.40;;;10.70;1.40;;;11.45;100.00;96290.19;618067;225;31896;-71
2021/10/09 08:55:22;;;;;;;8.25;4.97;;;10.00;1.40;;;11.54;100.00;96291.79;646229;216;42169;-72
2021/10/09 08:58:07;;;;;;;6.53;5.03;;;10.00;1.40;;;10.53;100.00;96295.77;646512;216;42745;-72
2021/10/09 09:00:51;;;;;;;7.57;4.93;;;9.30;1.40;;;10.76;100.00;96298.86;645913;216;41108;-72
2021/10/09 09:06:27;;;;;;;8.88;5.50;;;11.20;1.40;;;13.07;100.00;96290.19;646608;216;31713;-71
2021/10/09 09:31:35;;;;;;;6.65;5.05;;;14.00;1.40;;;15.97;84.92;96284.44;645571;212;31654;-70
2021/10/09 09:36:22;;;;;;;9.10;5.93;;;17.90;1.40;;;18.92;70.55;96279.31;645516;212;32178;-70
2021/10/09 09:38:56;;;;;;;7.45;5.40;;;17.70;1.40;;;19.26;71.35;96281.77;645877;212;31871;-71
2021/10/09 09:41:43;;;;;;;7.28;5.80;;;17.70;1.40;;;21.79;59.20;96285.42;641571;212;31730;-71
2021/10/09 09:44:27;;;;;;;8.23;5.67;;;17.80;1.40;;;20.52;58.17;96284.47;646058;216;31563;-72
2021/10/09 09:47:08;;;;;;;10.30;6.68;;;17.40;1.40;;;20.91;60.24;96281.23;646142;212;31548;-71
2021/10/09 09:49:52;;;;;;;9.18;6.28;;;16.40;1.40;;;20.57;60.47;96283.59;646182;216;31812;-71
2021/10/09 09:52:37;;;;;;;8.48;6.15;;;15.60;1.40;;;20.14;60.68;96285.63;646976;212;32553;-71
2021/10/09 09:55:18;;;;;;;11.23;6.90;;;14.80;1.40;;;18.27;70.07;96289.36;645939;212;31928;-71
2021/10/09 09:58:03;;;;;;;7.82;5.80;;;16.00;1.40;;;17.35;61.00;96289.59;646157;216;31959;-71
2021/10/09 10:00:44;;;;;;;8.45;5.82;;;15.60;1.40;;;16.53;65.78;96287.80;646507;216;42354;-71
2021/10/09 10:03:26;;;;;;;7.10;4.62;;;16.50;1.40;;;15.80;66.38;96290.97;645112;212;31556;-71
2021/10/09 10:06:07;;;;;;;6.43;5.03;;;13.70;1.40;;;17.64;69.43;96291.79;647126;216;31524;-70
2021/10/09 10:08:49;;;;;;;7.87;5.47;;;17.30;1.40;;;16.63;63.66;96290.39;645461;212;31593;-71
2021/10/09 10:11:31;;;;;;;7.80;5.70;;;14.60;1.40;;;17.45;64.40;96286.12;646455;216;31510;-71
2021/10/09 10:14:12;;;;;;;8.00;5.10;;;14.80;1.40;;;17.52;62.56;96285.98;646132;216;31576;-71
2021/10/09 10:16:57;;;;;;;8.90;6.53;;;15.00;1.40;;;13.55;76.61;96291.84;645830;216;33447;-71
2021/10/09 10:19:57;;;;;;;7.07;4.80;;;12.30;1.40;;;15.95;77.38;96286.73;645021;212;31697;-71
2021/10/09 10:22:57;;;;;;;5.72;4.97;;;17.30;1.40;;;17.55;61.45;96287.32;645939;216;31732;-70
2021/10/09 10:25:40;;;;;;;7.60;5.45;;;15.00;1.40;;;15.11;71.36;96283.72;644954;216;31580;-70
2021/10/09 10:28:21;;;;;;;7.05;5.18;;;13.30;1.40;;;15.00;74.85;96286.05;646206;216;31611;-70
2021/10/09 10:31:03;;;;;;;7.87;4.95;;;14.90;1.40;;;15.84;68.93;96285.78;646419;216;31650;-70
2021/10/09 10:35:51;;;;;;;8.30;4.80;;;14.90;1.40;;;15.53;70.44;96283.58;647218;216;31549;-71
2021/10/09 10:38:38;;;;;;;7.07;4.45;;;14.40;1.40;;;16.11;68.49;96282.63;646976;216;31557;-71
2021/10/09 10:41:20;;;;;;;7.00;5.57;;;16.10;1.40;;;15.08;69.72;96281.67;642041;216;31679;-70
2021/10/09 10:44:00;;;;;;;7.93;4.68;;;14.70;1.40;;;15.45;71.31;96286.09;646807;216;31574;-70
2021/10/09 10:46:47;;;;;;;7.40;5.60;;;14.20;1.40;;;15.10;74.59;96283.08;647702;216;42173;-71
2021/10/09 10:49:41;;;;;;;7.68;5.05;;;13.20;1.40;;;13.29;78.78;96290.77;645054;216;31747;-70
2021/10/09 10:55:14;;;;;;;6.40;4.70;;;13.10;1.40;;;15.61;75.58;96278.30;646053;212;32023;-70
2021/10/09 10:58:13;;;;;;;7.25;5.28;;;16.10;1.40;;;17.40;64.60;96275.55;646551;212;42443;-69
2021/10/09 11:01:20;;;;;;;5.60;5.10;;;16.30;1.40;;;19.39;63.74;96272.61;646260;216;31733;-71
2021/10/09 11:04:01;;;;;;;7.50;5.20;;;17.90;1.40;;;21.17;52.64;96272.69;645999;212;32013;-70
2021/10/09 11:06:43;;;;;;;6.35;4.55;;;18.00;1.40;;;22.15;51.60;96272.27;647275;216;31939;-71
2021/10/09 11:09:31;;;;;;;6.78;5.45;;;19.70;1.40;;;23.50;48.85;96267.35;646726;212;31563;-73
2021/10/09 11:12:19;;;;;;;8.20;6.20;;;19.40;1.40;;;21.08;51.34;96273.15;645588;216;31584;-71
2021/10/09 11:15:10;;;;;;;6.40;5.20;;;16.70;1.40;;;17.92;59.48;96274.71;646911;212;31817;-72
2021/10/09 11:17:57;;;;;;;7.70;4.90;;;14.30;1.40;;;15.76;68.24;96283.09;632718;220;32025;-71
2021/10/09 11:20:42;;;;;;;8.18;5.78;;;13.80;1.40;;;14.76;73.64;96276.77;645213;216;33724;-70
2021/10/09 11:23:20;;;;;;;7.80;5.85;;;13.50;1.40;;;17.99;65.50;96268.28;646986;212;32162;-71
2021/10/09 11:26:05;;;;;;;5.65;4.53;;;17.80;1.40;;;18.22;59.45;96266.60;645304;212;32003;-71
2021/10/09 11:28:46;;;;;;;6.53;4.75;;;17.60;1.40;;;18.10;62.46;96267.41;646791;216;42195;-70
2021/10/09 11:31:28;;;;;;;6.85;4.68;;;17.60;1.40;;;17.85;60.96;96263.00;647596;216;41830;-71
2021/10/09 11:35:51;;;;;;;7.20;4.60;;;18.60;1.40;;;19.12;57.46;96255.34;647314;216;42276;-70
2021/10/09 11:38:33;;;;;;;6.43;5.10;;;18.40;1.40;;;19.27;55.09;96256.06;647500;216;31521;-70
2021/10/09 11:41:22;;;;;;;6.87;5.30;;;17.70;1.40;;;20.89;50.11;96245.83;617357;226;32030;-70
2021/10/09 11:44:05;;;;;;;4.37;3.80;;;19.20;1.40;;;21.09;47.96;96244.23;645973;216;31573;-71
2021/10/09 11:46:54;;;;;;;6.45;4.03;;;19.40;1.40;;;19.49;52.45;96249.11;645945;216;31589;-71
2021/10/09 11:55:17;;;;;;;5.60;4.20;;;17.50;1.40;;;20.57;49.75;96249.37;646869;216;31605;-71
2021/10/09 11:58:02;;;;;;;4.93;3.60;;;19.80;1.40;;;22.46;47.29;96249.34;645883;216;42859;-71
2021/10/09 12:00:43;;;;;;;4.45;3.90;;;20.30;1.40;;;20.85;46.22;96246.84;619170;226;31934;-70
2021/10/09 12:03:30;;;;;;;5.40;3.70;;;18.60;1.40;;;20.76;46.81;96249.20;631733;222;31724;-71
2021/10/09 12:06:11;;;;;;;5.37;3.50;;;18.80;1.40;;;20.15;47.86;96249.70;645914;216;42367;-71
2021/10/09 12:08:53;;;;;;;6.97;3.87;;;17.90;1.40;;;17.05;53.71;96253.97;647425;212;31566;-71
2021/10/09 12:11:36;;;;;;;4.60;3.40;;;16.40;1.40;;;20.71;49.58;96231.90;646800;216;31794;-71
2021/10/09 12:14:20;;;;;;;6.15;3.90;;;19.50;1.40;;;19.27;48.40;96239.33;646154;213;31732;-71
2021/10/09 12:17:02;;;;;;;3.50;3.20;;;17.00;1.40;;;20.22;50.44;96233.52;646576;216;32187;-70
2021/10/09 12:19:46;;;;;;;4.90;3.80;;;19.00;1.40;;;21.51;45.36;96233.06;646116;212;32277;-71
2021/10/09 12:22:25;;;;;;;4.20;3.50;;;18.10;1.40;;;18.21;50.38;96235.71;647059;216;31691;-71
2021/10/09 12:25:07;;;;;;;4.97;3.33;;;16.70;1.40;;;18.75;51.89;96237.44;646308;212;32095;-71
2021/10/09 12:27:55;;;;;;;4.70;3.80;;;16.60;1.40;;;17.50;53.39;96235.36;645833;216;31734;-71
2021/10/09 12:30:45;;;;;;;6.50;3.87;;;16.00;1.40;;;19.34;50.96;96226.60;646724;213;32109;-70
2021/10/09 12:35:53;;;;;;;3.45;2.97;;;17.80;1.40;;;17.92;52.48;96230.59;615936;224;42570;-70
2021/10/09 12:38:38;;;;;;;5.40;3.53;;;17.00;1.40;;;18.15;52.92;96230.16;646632;216;31556;-71
2021/10/09 12:41:20;;;;;;;3.58;3.25;;;17.70;1.40;;;18.41;52.64;96223.20;642623;216;31816;-71
2021/10/09 12:44:02;;;;;;;5.10;4.10;;;17.90;1.40;;;20.83;48.27;96220.45;646936;216;31645;-71
2021/10/09 12:46:44;;;;;;;3.90;3.20;;;19.60;1.40;;;22.92;45.48;96219.64;631150;217;31686;-72
2021/10/09 12:49:26;;;;;;;4.70;3.33;;;21.10;1.40;;;24.13;41.41;96218.61;645535;216;31621;-71
2021/10/09 12:52:07;;;;;;;6.55;3.42;;;22.30;1.40;;;27.00;39.59;96218.63;647074;212;31592;-72
2021/10/09 12:54:52;;;;;;;4.45;2.90;;;23.20;1.40;;;27.02;38.94;96214.20;617900;222;31904;-72
2021/10/09 12:57:34;;;;;;;5.22;3.10;;;23.50;1.40;;;25.90;41.87;96220.87;646936;212;31568;-71
2021/10/09 13:00:16;;;;;;;4.95;3.85;;;23.00;1.40;;;25.20;36.93;96214.78;646077;212;32257;-71
2021/10/09 13:05:00;;;;;;;4.07;3.03;;;20.30;1.40;;;23.03;43.56;96209.97;645157;216;32256;-72
2021/10/09 13:07:42;;;;;;;4.22;3.42;;;21.20;1.40;;;25.17;40.25;96205.92;645958;216;32179;-72
2021/10/09 13:10:24;;;;;;;6.15;4.20;;;21.10;1.40;;;22.78;44.33;96215.16;645995;216;32222;-71
2021/10/09 13:13:05;;;;;;;5.82;3.60;;;21.10;1.40;;;23.69;43.75;96205.77;646995;216;31591;-72
2021/10/09 13:15:47;;;;;;;5.25;3.50;;;21.10;1.40;;;23.51;41.42;96208.04;644908;216;31584;-72
2021/10/09 13:18:29;;;;;;;4.20;3.60;;;20.20;1.40;;;22.82;45.69;96202.06;647509;216;31572;-71
2021/10/09 13:21:19;;;;;;;5.78;3.33;;;19.90;1.40;;;22.25;43.82;96203.84;646899;216;31555;-72
2021/10/09 13:24:00;;;;;;;5.07;3.40;;;18.50;1.40;;;21.69;45.19;96205.04;646358;216;31581;-72
2021/10/09 13:26:45;;;;;;;3.20;2.72;;;18.60;1.40;;;20.15;49.68;96202.12;646452;216;31586;-72
2021/10/09 13:29:26;;;;;;;3.30;3.00;;;17.40;1.40;;;19.86;48.88;96201.94;618596;226;31896;-71
2021/10/09 13:32:14;;;;;;;3.30;3.00;;;17.30;1.40;;;19.67;50.37;96198.41;646951;216;31567;-73
2021/10/09 13:35:51;;;;;;;5.67;3.50;;;17.00;1.40;;;19.87;50.83;96200.05;646206;212;31655;-72
2021/10/09 13:38:34;;;;;;;2.72;2.08;;;17.90;1.40;;;20.93;47.72;96194.68;646864;215;31571;-71
2021/10/09 13:41:15;;;;;;;3.78;3.00;;;17.70;1.40;;;17.64;53.63;96199.27;642590;212;31882;-71
2021/10/09 13:43:56;;;;;;;4.15;2.90;;;16.30;1.40;;;17.75;56.86;96203.88;646165;212;31574;-71
2021/10/09 13:46:41;;;;;;;4.47;2.50;;;16.20;1.40;;;18.04;54.40;96204.54;644146;216;31559;-72
2021/10/09 13:49:23;;;;;;;4.62;3.15;;;16.30;1.40;;;16.61;58.40;96207.59;647566;213;31662;-75
2021/10/09 13:52:06;;;;;;;4.07;2.87;;;15.40;1.40;;;16.70;60.65;96199.34;646325;216;32183;-72
2021/10/09 13:54:46;;;;;;;3.22;2.90;;;15.40;1.40;;;16.78;60.38;96200.84;645320;212;32732;-71
2021/10/09 13:57:31;;;;;;;4.80;2.80;;;15.50;1.40;;;17.80;57.45;96200.86;646893;216;31688;-70
2021/10/09 14:00:15;;;;;;;4.55;3.08;;;16.30;1.40;;;18.31;55.75;96194.75;647695;216;31574;-71
2021/10/09 14:02:55;;;;;;;3.62;2.30;;;16.60;1.40;;;16.23;58.57;96206.48;645737;212;31878;-71
2021/10/09 14:05:36;;;;;;;6.97;2.67;;;15.00;1.40;;;15.94;62.17;96205.03;645853;212;31671;-73
2021/10/09 14:08:18;;;;;;;5.25;3.08;;;14.90;1.40;;;16.45;60.97;96200.66;647550;212;34227;-70
2021/10/09 14:11:00;;;;;;;3.60;2.80;;;15.30;1.40;;;17.53;57.63;96197.64;647034;216;31576;-71
2021/10/09 14:13:41;;;;;;;5.72;2.53;;;15.90;1.40;;;17.39;57.67;96200.55;647411;216;31526;-71
2021/10/09 14:16:23;;;;;;;4.75;2.90;;;15.70;1.40;;;17.73;58.40;96200.72;647246;212;31618;-71
2021/10/09 14:19:05;;;;;;;2.47;1.95;;;15.90;1.40;;;17.77;57.49;96202.29;645462;216;31586;-71
2021/10/09 14:21:52;;;;;;;2.50;2.00;;;15.80;1.40;;;17.91;55.38;96203.81;646339;216;31867;-71